Time;durP1;ratioP1;P1;durP2;ratioP2;P2;SDS_P1;SDS_P2;PMS_P1;PMS_P2;Temp;Humidity;BMP_temperature;BMP_pressure;BME280_temperature;BME280_humidity;BME280_pressure;Samples;Min_cycle;Max_cycle;Signal;HPM_P1;HPM_P2
2022/09/30 00:02:16;;;;;;;2.50;2.40;;;;;;;8.75;86.98;99692.66;5073507;28;20315;-75
2022/09/30 00:04:42;;;;;;;2.73;2.53;;;;;;;8.77;86.98;99700.44;5073245;28;20227;-75
2022/09/30 00:07:09;;;;;;;2.47;2.27;;;;;;;8.75;86.71;99705.66;5073169;28;20203;-75
2022/09/30 00:09:35;;;;;;;2.20;2.10;;;;;;;8.73;86.94;99703.09;5073277;28;20206;-75
2022/09/30 00:12:02;;;;;;;2.80;2.40;;;;;;;8.63;87.30;99696.38;5073142;28;20201;-75
2022/09/30 00:14:30;;;;;;;2.27;2.00;;;;;;;8.68;87.37;99685.88;5073007;28;20212;-75
2022/09/30 00:16:57;;;;;;;3.70;2.30;;;;;;;8.69;87.76;99679.78;5072947;28;20208;-75
2022/09/30 00:19:23;;;;;;;2.43;2.30;;;;;;;8.65;87.64;99672.94;5065666;28;20239;-75
2022/09/30 00:21:50;;;;;;;2.60;2.50;;;;;;;8.63;88.55;99670.38;5064789;28;20217;-75
2022/09/30 00:24:16;;;;;;;2.43;2.23;;;;;;;8.65;88.80;99662.53;5072653;28;20211;-75
2022/09/30 00:26:43;;;;;;;4.20;2.57;;;;;;;8.68;88.81;99654.66;5072968;28;20577;-75
2022/09/30 00:29:10;;;;;;;2.20;2.10;;;;;;;8.72;88.54;99662.38;5072912;28;20422;-75
2022/09/30 00:31:39;;;;;;;6.27;2.40;;;;;;;8.66;88.25;99670.31;5072964;28;20205;-75
2022/09/30 00:34:09;;;;;;;2.70;2.60;;;;;;;8.69;88.34;99669.38;5072904;28;20219;-75
2022/09/30 00:36:39;;;;;;;2.33;2.00;;;;;;;8.66;88.07;99672.03;5072497;28;20623;-75
2022/09/30 00:39:07;;;;;;;2.80;2.40;;;;;;;8.65;88.05;99676.41;5072348;28;20697;-75
2022/09/30 00:41:34;;;;;;;2.30;2.20;;;;;;;8.71;87.50;99694.47;5072782;28;20278;-75
2022/09/30 00:44:01;;;;;;;3.07;2.87;;;;;;;8.68;87.08;99706.69;5072707;28;20201;-75
2022/09/30 00:46:34;;;;;;;3.00;2.70;;;;;;;8.61;87.27;99718.97;5072484;28;20229;-75
2022/09/30 00:49:07;;;;;;;6.33;4.53;;;;;;;8.62;86.39;99720.72;5068337;28;20221;-75
2022/09/30 00:51:38;;;;;;;3.63;3.30;;;;;;;8.65;86.75;99720.63;5069565;28;20194;-75
2022/09/30 00:54:10;;;;;;;3.40;3.10;;;;;;;8.63;87.33;99709.41;5072347;28;20204;-75
2022/09/30 00:56:41;;;;;;;3.93;3.53;;;;;;;8.63;87.36;99713.75;5072335;28;20235;-75
2022/09/30 00:59:13;;;;;;;3.10;2.90;;;;;;;8.67;87.24;99729.25;5072455;28;20206;-75
2022/09/30 01:01:41;;;;;;;2.83;2.63;;;;;;;8.66;87.48;99717.16;5072272;28;20236;-75
2022/09/30 01:04:14;;;;;;;2.83;2.70;;;;;;;8.61;87.07;99726.78;5072245;28;20201;-75
2022/09/30 01:06:41;;;;;;;2.97;2.70;;;;;;;8.60;87.47;99719.84;5072444;28;20221;-75
2022/09/30 01:09:08;;;;;;;3.33;3.13;;;;;;;8.57;87.90;99721.69;5072105;28;20208;-75
2022/09/30 01:11:35;;;;;;;3.73;2.73;;;;;;;8.60;87.46;99719.84;5072234;28;20819;-75
2022/09/30 01:14:04;;;;;;;3.20;3.00;;;;;;;8.57;87.91;99719.09;5072233;28;20227;-75
2022/09/30 01:16:54;;;;;;;3.90;3.03;;;;;;;8.59;87.57;99715.56;5071806;28;20235;-75
2022/09/30 01:20:06;;;;;;;3.30;2.80;;;;;;;8.51;88.29;99707.94;5064933;28;20225;-76
2022/09/30 01:22:40;;;;;;;3.27;2.97;;;;;;;8.51;88.13;99705.31;5069513;28;20221;-75
2022/09/30 01:25:58;;;;;;;3.13;2.93;;;;;;;8.52;87.87;99700.97;5072046;28;20228;-75
2022/09/30 01:29:03;;;;;;;3.00;2.80;;;;;;;8.47;87.84;99702.84;5071985;28;20205;-74
2022/09/30 01:31:42;;;;;;;3.03;2.63;;;;;;;8.49;88.10;99699.31;5024585;28;20721;-75
2022/09/30 01:34:16;;;;;;;3.03;2.30;;;;;;;8.47;88.19;99702.84;5072166;28;20209;-75
2022/09/30 01:36:55;;;;;;;2.73;2.53;;;;;;;8.46;87.99;99712.38;5071752;28;20206;-75
2022/09/30 01:39:33;;;;;;;2.80;2.60;;;;;;;8.45;88.28;99710.66;5071654;28;20213;-75
2022/09/30 01:42:10;;;;;;;5.63;2.70;;;;;;;8.37;88.12;99703.91;5071984;28;20225;-75
2022/09/30 01:44:48;;;;;;;2.97;2.73;;;;;;;8.35;88.11;99704.78;5071984;28;20236;-75
2022/09/30 01:47:24;;;;;;;2.70;2.50;;;;;;;8.34;88.28;99705.69;5071863;28;20204;-75
2022/09/30 01:49:55;;;;;;;3.50;2.57;;;;;;;8.40;88.25;99707.25;5064169;28;20244;-75
2022/09/30 01:55:24;;;;;;;2.70;2.53;;;;;;;8.37;87.58;99722.94;5022603;28;20224;-75
2022/09/30 01:57:59;;;;;;;3.30;3.00;;;;;;;8.37;88.07;99738.56;5058290;28;20293;-75
2022/09/30 02:00:26;;;;;;;3.37;3.07;;;;;;;8.29;87.79;99741.31;5071688;28;20259;-75
2022/09/30 02:02:58;;;;;;;3.17;2.97;;;;;;;8.24;87.98;99748.34;5072291;28;20706;-75
2022/09/30 02:05:30;;;;;;;2.77;2.63;;;;;;;8.26;87.30;99754.34;5075680;28;20236;-75
2022/09/30 02:08:01;;;;;;;3.70;3.33;;;;;;;8.22;87.20;99767.47;5075843;28;20267;-75
2022/09/30 02:10:32;;;;;;;16.90;3.83;;;;;;;8.12;86.82;99777.19;5075322;28;20692;-75
2022/09/30 02:13:04;;;;;;;3.50;2.97;;;;;;;8.09;87.17;99775.50;5075540;28;20208;-75
2022/09/30 02:15:35;;;;;;;3.03;2.77;;;;;;;8.09;87.08;99770.31;5075240;28;20278;-75
2022/09/30 02:18:10;;;;;;;3.40;2.50;;;;;;;8.12;87.75;99759.84;5075708;28;20208;-75
2022/09/30 02:20:41;;;;;;;2.70;2.50;;;;;;;8.11;87.97;99752.94;5075574;28;20208;-75
2022/09/30 02:23:13;;;;;;;3.40;3.10;;;;;;;8.08;88.28;99747.78;5075390;28;20226;-75
2022/09/30 02:25:44;;;;;;;2.77;2.57;;;;;;;8.09;89.07;99725.28;5070643;28;20225;-75
2022/09/30 02:28:17;;;;;;;6.57;3.27;;;;;;;8.11;89.32;99726.09;5075125;28;20211;-75
2022/09/30 02:30:49;;;;;;;3.47;3.17;;;;;;;8.09;89.42;99697.53;5075123;28;20544;-75
2022/09/30 02:33:22;;;;;;;2.57;2.37;;;;;;;8.11;90.32;99682.75;5075237;28;20206;-75
2022/09/30 02:35:54;;;;;;;2.87;2.63;;;;;;;8.14;89.53;99687.88;5074945;28;20236;-75
2022/09/30 02:38:23;;;;;;;3.00;2.80;;;;;;;8.12;90.22;99687.06;5075084;28;20211;-75
2022/09/30 02:40:55;;;;;;;2.77;2.50;;;;;;;8.17;89.76;99689.59;5074677;28;20622;-75
2022/09/30 02:43:22;;;;;;;3.50;2.80;;;;;;;8.18;88.86;99703.44;5075053;28;20229;-75
2022/09/30 02:45:59;;;;;;;2.87;2.67;;;;;;;8.13;89.14;99717.38;5074919;28;20274;-75
2022/09/30 02:48:31;;;;;;;3.53;3.33;;;;;;;8.16;89.08;99732.03;5074840;28;20606;-75
2022/09/30 02:51:04;;;;;;;3.47;2.90;;;;;;;8.12;89.38;99731.25;5074801;28;20208;-75
2022/09/30 02:53:36;;;;;;;3.23;3.03;;;;;;;8.14;89.01;99726.03;5074728;28;20682;-75
2022/09/30 02:56:13;;;;;;;3.53;3.23;;;;;;;8.13;89.75;99717.38;5070245;28;20216;-75
2022/09/30 02:58:42;;;;;;;3.07;2.87;;;;;;;8.11;89.92;99702.72;5074684;28;20204;-75
2022/09/30 03:01:11;;;;;;;3.47;3.20;;;;;;;8.11;89.83;99697.50;5074671;28;20258;-75
2022/09/30 03:03:42;;;;;;;3.60;3.40;;;;;;;8.11;89.95;99708.75;5074721;28;20232;-75
2022/09/30 03:06:10;;;;;;;3.67;3.37;;;;;;;8.15;90.07;99704.34;5074251;28;20227;-75
2022/09/30 03:08:36;;;;;;;3.03;2.83;;;;;;;8.15;90.27;99700.00;5074491;28;20204;-75
2022/09/30 03:11:04;;;;;;;2.67;2.50;;;;;;;8.18;89.50;99709.47;5074158;28;20208;-75
2022/09/30 03:13:54;;;;;;;6.33;2.80;;;;;;;8.18;89.65;99724.22;5074377;28;20204;-75
2022/09/30 03:16:31;;;;;;;3.33;3.03;;;;;;;8.12;88.66;99740.78;5073578;28;20745;-75
2022/09/30 03:19:19;;;;;;;4.30;4.00;;;;;;;8.12;89.19;99757.25;5074337;28;20574;-75
2022/09/30 03:22:00;;;;;;;6.07;5.67;;;;;;;8.07;87.55;99784.25;5074273;28;20225;-75
2022/09/30 03:25:01;;;;;;;5.47;4.93;;;;;;;7.94;87.80;99796.59;5074086;28;20331;-75
2022/09/30 03:27:39;;;;;;;5.03;4.67;;;;;;;7.95;87.92;99800.91;5071060;28;20207;-75
2022/09/30 03:30:10;;;;;;;4.20;3.97;;;;;;;7.90;88.78;99787.13;5074071;28;20216;-75
2022/09/30 03:33:01;;;;;;;4.03;3.70;;;;;;;7.81;89.92;99753.53;5073991;28;20213;-75
2022/09/30 03:35:33;;;;;;;4.23;4.00;;;;;;;7.81;90.59;99743.13;5073939;28;20225;-75
2022/09/30 03:38:07;;;;;;;4.27;3.93;;;;;;;7.82;89.56;99745.69;5074052;28;20227;-75
2022/09/30 03:40:41;;;;;;;5.00;4.60;;;;;;;7.81;89.16;99758.72;5073705;28;20205;-75
2022/09/30 03:43:17;;;;;;;4.23;4.00;;;;;;;7.81;89.16;99762.19;5073752;28;20228;-75
2022/09/30 03:45:51;;;;;;;6.20;3.87;;;;;;;7.86;89.16;99769.91;5073801;28;20360;-75
2022/09/30 03:48:19;;;;;;;3.30;3.10;;;;;;;7.85;88.26;99781.16;5073764;28;20209;-75
2022/09/30 03:50:47;;;;;;;4.10;3.80;;;;;;;7.84;87.90;99805.44;5073484;28;20209;-75
2022/09/30 03:53:14;;;;;;;4.43;4.13;;;;;;;7.78;87.63;99819.41;5073542;28;20197;-75
2022/09/30 03:55:47;;;;;;;4.90;4.50;;;;;;;7.73;88.05;99821.19;5068841;28;20237;-75
2022/09/30 03:58:14;;;;;;;5.20;3.80;;;;;;;7.65;87.41;99826.56;5073652;28;20207;-75
2022/09/30 04:00:47;;;;;;;3.90;3.60;;;;;;;7.65;87.32;99829.16;5073677;28;20217;-75
2022/09/30 04:03:13;;;;;;;4.83;4.43;;;;;;;7.61;88.25;99818.81;5073387;28;20236;-75
2022/09/30 04:05:40;;;;;;;5.10;4.27;;;;;;;7.62;88.03;99820.56;5073057;28;20228;-75
2022/09/30 04:08:08;;;;;;;3.80;3.60;;;;;;;7.63;88.14;99835.22;5073276;28;20205;-75
2022/09/30 04:10:34;;;;;;;3.53;3.23;;;;;;;7.62;87.08;99844.78;5073535;28;20289;-75
2022/09/30 04:13:01;;;;;;;3.83;3.60;;;;;;;7.58;87.20;99850.91;5073206;28;20718;-75
2022/09/30 04:15:27;;;;;;;4.27;3.20;;;;;;;7.53;88.01;99848.41;5073124;28;20240;-75
2022/09/30 04:17:54;;;;;;;4.07;3.77;;;;;;;7.53;88.03;99839.72;5073374;28;20578;-75
2022/09/30 04:20:20;;;;;;;3.83;3.57;;;;;;;7.52;88.07;99823.28;5073168;28;20212;-75
2022/09/30 04:22:47;;;;;;;3.60;3.27;;;;;;;7.51;88.82;99807.72;5072880;28;20706;-75
2022/09/30 04:25:15;;;;;;;5.03;3.73;;;;;;;7.58;90.10;99795.50;5069991;28;20228;-75
2022/09/30 04:27:41;;;;;;;5.70;3.70;;;;;;;7.61;90.44;99777.25;5071741;28;20279;-75
2022/09/30 04:30:08;;;;;;;3.80;3.50;;;;;;;7.63;90.28;99773.78;5072929;28;20208;-75
2022/09/30 04:32:35;;;;;;;3.47;3.27;;;;;;;7.61;91.32;99753.88;5072803;28;20685;-75
2022/09/30 04:35:01;;;;;;;4.03;3.70;;;;;;;7.61;90.86;99744.38;5072414;28;20241;-75
2022/09/30 04:37:28;;;;;;;3.73;3.43;;;;;;;7.62;90.68;99742.63;5072822;28;20734;-74
2022/09/30 04:39:54;;;;;;;3.47;3.27;;;;;;;7.63;90.95;99768.59;5072717;28;20627;-74
2022/09/30 04:42:23;;;;;;;5.87;5.37;;;;;;;7.64;89.33;99791.06;5072474;28;20228;-75
2022/09/30 04:44:49;;;;;;;6.23;5.73;;;;;;;7.60;88.54;99817.97;5072514;28;20353;-74
2022/09/30 04:47:16;;;;;;;8.17;6.20;;;;;;;7.51;88.74;99838.88;5072553;28;20201;-74
2022/09/30 04:49:42;;;;;;;6.80;6.20;;;;;;;7.42;87.93;99852.03;5072294;28;20213;-75
2022/09/30 04:52:09;;;;;;;7.30;6.73;;;;;;;7.39;87.63;99865.06;5070818;28;20201;-75
2022/09/30 04:54:35;;;;;;;6.77;6.37;;;;;;;7.36;88.40;99872.00;5071103;28;20220;-75
2022/09/30 04:57:02;;;;;;;7.63;6.60;;;;;;;7.35;88.67;99854.72;5064882;28;20209;-75
2022/09/30 04:59:30;;;;;;;6.60;6.10;;;;;;;7.39;89.39;99852.06;5063081;28;20204;-75
2022/09/30 05:01:56;;;;;;;5.83;5.37;;;;;;;7.40;89.48;99825.25;5062695;28;20289;-75
2022/09/30 05:04:23;;;;;;;7.67;4.73;;;;;;;7.42;89.27;99823.47;5061251;28;20201;-75
2022/09/30 05:06:49;;;;;;;4.57;4.27;;;;;;;7.39;89.35;99839.09;5060522;28;20208;-75
2022/09/30 05:09:16;;;;;;;5.40;4.63;;;;;;;7.45;88.23;99863.25;5061783;28;20225;-77
2022/09/30 05:11:42;;;;;;;6.23;4.87;;;;;;;7.39;87.42;99896.22;5062454;28;20201;-75
2022/09/30 05:14:09;;;;;;;5.40;4.97;;;;;;;7.36;86.97;99916.16;5058720;28;20204;-75
2022/09/30 05:16:37;;;;;;;4.90;4.50;;;;;;;7.25;87.57;99922.38;5071859;28;20224;-75
2022/09/30 05:19:03;;;;;;;4.83;4.37;;;;;;;7.21;88.07;99912.91;5071914;28;20733;-75
2022/09/30 05:21:30;;;;;;;5.07;4.70;;;;;;;7.19;88.34;99914.66;5070474;28;20205;-75
2022/09/30 05:23:57;;;;;;;4.43;3.97;;;;;;;7.21;88.46;99910.31;5071717;28;20581;-75
2022/09/30 05:26:23;;;;;;;4.80;4.30;;;;;;;7.16;88.94;99898.25;5067313;28;20286;-75
2022/09/30 05:28:49;;;;;;;5.33;4.83;;;;;;;7.22;88.65;99878.31;5063511;28;20659;-77
2022/09/30 05:31:16;;;;;;;4.90;4.50;;;;;;;7.24;89.74;99868.75;5071882;28;20212;-74
2022/09/30 05:33:45;;;;;;;5.20;4.80;;;;;;;7.25;89.45;99847.94;5071705;28;20570;-77
2022/09/30 05:36:14;;;;;;;4.70;4.27;;;;;;;7.32;89.29;99843.53;5071585;28;20718;-75
2022/09/30 05:38:41;;;;;;;4.97;4.47;;;;;;;7.32;90.62;99830.56;5071456;28;20216;-75
2022/09/30 05:41:10;;;;;;;4.63;4.33;;;;;;;7.31;91.18;99808.06;5071423;28;20233;-75
2022/09/30 05:43:37;;;;;;;4.93;4.63;;;;;;;7.34;91.10;99800.22;5071769;28;20227;-75
2022/09/30 05:46:04;;;;;;;5.60;5.20;;;;;;;7.42;91.73;99800.97;5071260;28;20714;-75
2022/09/30 05:48:31;;;;;;;5.97;5.20;;;;;;;7.45;92.12;99798.31;5071903;28;20212;-75
2022/09/30 05:51:00;;;;;;;5.03;4.63;;;;;;;7.47;91.33;99801.75;5071551;28;20239;-75
2022/09/30 05:53:27;;;;;;;5.27;4.87;;;;;;;7.49;91.70;99817.28;5071342;28;20197;-75
2022/09/30 05:55:54;;;;;;;5.50;5.10;;;;;;;7.52;90.65;99822.44;5067059;28;20216;-75
2022/09/30 05:58:21;;;;;;;5.13;4.60;;;;;;;7.52;90.66;99832.81;5071091;28;20231;-74
2022/09/30 06:00:48;;;;;;;7.13;5.17;;;;;;;7.54;91.60;99831.91;5071465;28;20259;-74
2022/09/30 06:03:16;;;;;;;4.77;4.47;;;;;;;7.59;91.45;99826.66;5071506;28;20228;-75
2022/09/30 06:05:43;;;;;;;7.80;7.20;;;;;;;7.62;90.94;99841.31;5071310;28;20224;-75
2022/09/30 06:08:12;;;;;;;8.60;8.00;;;;;;;7.59;89.43;99877.72;5070887;28;20197;-74
2022/09/30 06:10:40;;;;;;;8.13;7.53;;;;;;;7.52;88.87;99908.13;5071608;28;20208;-75
2022/09/30 06:13:07;;;;;;;9.10;7.53;;;;;;;7.51;88.59;99937.56;5065619;28;20197;-75
2022/09/30 06:15:35;;;;;;;8.17;7.63;;;;;;;7.39;87.29;99963.72;5061683;28;20722;-75
2022/09/30 06:18:02;;;;;;;9.00;8.30;;;;;;;7.38;88.35;99969.81;5063667;28;20229;-74
2022/09/30 06:20:29;;;;;;;9.20;8.40;;;;;;;7.39;88.41;99963.72;5070921;28;20216;-75
2022/09/30 06:22:58;;;;;;;8.60;7.83;;;;;;;7.39;88.39;99969.75;5071337;28;20228;-75
2022/09/30 06:25:27;;;;;;;9.30;8.60;;;;;;;7.37;88.38;99955.94;5066988;28;20233;-75
2022/09/30 06:27:53;;;;;;;9.60;8.80;;;;;;;7.33;89.40;99959.47;5070701;28;20197;-75
2022/09/30 06:30:20;;;;;;;9.03;8.37;;;;;;;7.31;89.65;99949.13;5071282;28;20679;-75
2022/09/30 06:32:47;;;;;;;9.13;8.53;;;;;;;7.32;89.83;99939.59;5071140;28;20202;-75
2022/09/30 06:35:13;;;;;;;10.00;9.20;;;;;;;7.38;89.65;99938.66;5070995;28;20229;-75
2022/09/30 06:37:40;;;;;;;10.33;9.33;;;;;;;7.41;89.60;99942.03;5064628;28;20204;-75
2022/09/30 06:40:08;;;;;;;11.17;10.07;;;;;;;7.44;88.90;99944.59;5060357;28;20236;-75
2022/09/30 06:42:36;;;;;;;10.97;9.73;;;;;;;7.36;89.04;99954.25;5059723;28;20202;-75
2022/09/30 06:45:02;;;;;;;10.40;9.50;;;;;;;7.39;89.67;99950.72;5065180;28;20233;-75
2022/09/30 06:47:30;;;;;;;10.10;9.40;;;;;;;7.13;89.41;99950.19;5070955;28;20216;-75
2022/09/30 06:49:57;;;;;;;9.73;8.93;;;;;;;7.18;91.07;99919.00;5061729;28;20254;-74
2022/09/30 06:52:25;;;;;;;10.57;9.03;;;;;;;7.31;90.88;99907.59;5065349;28;20201;-74
2022/09/30 06:54:51;;;;;;;8.80;8.20;;;;;;;7.37;90.64;99904.00;5063134;28;20218;-74
2022/09/30 06:57:21;;;;;;;9.13;8.43;;;;;;;7.45;90.95;99901.31;5066704;28;20553;-76
2022/09/30 06:59:49;;;;;;;9.17;8.30;;;;;;;7.45;91.03;99903.91;5065463;28;20197;-75
2022/09/30 07:02:15;;;;;;;9.33;8.53;;;;;;;7.53;91.01;99889.94;5063400;28;20211;-76
2022/09/30 07:04:42;;;;;;;9.33;8.50;;;;;;;7.58;90.98;99894.22;5063219;28;20316;-75
2022/09/30 07:07:09;;;;;;;8.70;8.10;;;;;;;7.66;91.20;99902.72;5064979;28;20658;-75
2022/09/30 07:09:35;;;;;;;9.53;8.83;;;;;;;7.62;91.00;99901.06;5063782;28;20204;-75
2022/09/30 07:12:02;;;;;;;8.37;7.80;;;;;;;7.68;91.54;99890.56;5063666;28;20201;-75
2022/09/30 07:14:30;;;;;;;9.60;8.80;;;;;;;7.68;92.11;99887.97;5066452;28;20193;-73
2022/09/30 07:16:58;;;;;;;12.60;10.97;;;;;;;7.65;92.16;99875.91;5063517;28;20202;-73
2022/09/30 07:19:24;;;;;;;10.60;9.80;;;;;;;7.63;93.23;99861.22;5063167;28;20201;-73
2022/09/30 07:21:51;;;;;;;9.07;8.27;;;;;;;7.63;93.90;99846.50;5062042;28;20202;-73
2022/09/30 07:24:18;;;;;;;10.27;9.47;;;;;;;7.59;94.53;99836.16;5064333;28;20610;-73
2022/09/30 07:26:45;;;;;;;8.73;7.80;;;;;;;7.63;94.57;99817.94;5064101;28;20209;-73
2022/09/30 07:29:12;;;;;;;7.70;7.20;;;;;;;7.62;95.69;99791.97;5065206;28;20208;-73
2022/09/30 07:31:40;;;;;;;8.40;7.60;;;;;;;7.66;96.73;99778.91;5063370;28;20209;-73
2022/09/30 07:34:09;;;;;;;9.53;8.80;;;;;;;7.72;96.75;99763.19;5063192;28;20193;-72
2022/09/30 07:36:37;;;;;;;9.47;8.77;;;;;;;7.81;97.18;99756.13;5053097;28;20241;-74
2022/09/30 07:39:05;;;;;;;12.03;11.03;;;;;;;7.86;97.93;99759.50;5053421;28;20280;-73
2022/09/30 07:41:32;;;;;;;12.63;11.60;;;;;;;8.00;98.31;99760.09;5053102;28;20668;-72
2022/09/30 07:43:58;;;;;;;11.57;10.53;;;;;;;8.11;97.07;99765.94;5053244;28;20718;-72
2022/09/30 07:46:28;;;;;;;11.00;10.03;;;;;;;8.25;96.35;99796.88;5053116;28;20248;-72
2022/09/30 07:48:59;;;;;;;10.30;9.50;;;;;;;8.41;95.60;99840.78;5053448;28;20255;-72
2022/09/30 07:51:30;;;;;;;10.23;9.53;;;;;;;8.54;94.18;99869.16;5063823;28;20208;-72
2022/09/30 07:53:59;;;;;;;9.57;8.77;;;;;;;8.68;92.86;99901.81;5062333;28;20204;-73
2022/09/30 07:56:27;;;;;;;10.57;9.10;;;;;;;8.77;92.85;99916.41;5062427;28;20236;-72
2022/09/30 07:58:55;;;;;;;10.37;9.67;;;;;;;8.93;91.60;99942.06;5064753;28;20202;-72
2022/09/30 08:01:23;;;;;;;10.33;9.53;;;;;;;9.09;90.96;99981.66;5062992;28;20219;-72
2022/09/30 08:03:53;;;;;;;9.90;9.10;;;;;;;9.20;90.62;99997.09;5064056;28;20304;-72
2022/09/30 08:06:21;;;;;;;14.67;8.90;;;;;;;9.37;90.02;100014.97;5062167;28;20224;-72
2022/09/30 08:08:52;;;;;;;9.47;8.87;;;;;;;9.49;90.20;100034.69;5062344;28;20287;-72
2022/09/30 08:11:18;;;;;;;10.27;9.57;;;;;;;9.59;88.37;100061.41;5062303;28;20193;-72
2022/09/30 08:13:45;;;;;;;8.57;7.97;;;;;;;9.61;90.07;100044.84;5062097;28;20197;-72
2022/09/30 08:16:11;;;;;;;9.30;8.67;;;;;;;9.63;89.58;100034.41;5063012;28;20217;-72
2022/09/30 08:18:37;;;;;;;9.23;8.63;;;;;;;9.72;88.93;100060.25;5062010;28;20202;-72
2022/09/30 08:21:05;;;;;;;9.57;8.87;;;;;;;9.86;87.10;100099.06;5062516;28;20208;-75
2022/09/30 08:23:31;;;;;;;9.93;9.13;;;;;;;10.01;87.52;100113.50;5063703;28;20217;-73
2022/09/30 08:26:04;;;;;;;9.57;8.67;;;;;;;10.08;88.26;100091.63;5061242;28;20216;-73
2022/09/30 08:28:31;;;;;;;9.37;8.67;;;;;;;10.16;87.68;100104.50;5065645;28;20212;-72
2022/09/30 08:31:03;;;;;;;10.37;9.57;;;;;;;10.32;87.02;100121.53;5061730;28;20200;-73
2022/09/30 08:33:30;;;;;;;8.80;8.20;;;;;;;10.38;86.84;100133.59;5061319;28;20226;-73
2022/09/30 08:35:57;;;;;;;8.77;8.17;;;;;;;10.39;87.06;100124.88;5062673;28;20699;-73
2022/09/30 08:38:23;;;;;;;10.30;9.30;;;;;;;10.48;85.21;100167.25;4363705;28;10000644;-72
2022/09/30 08:40:58;;;;;;;10.87;10.07;;;;;;;10.62;85.86;100153.03;5061103;28;20204;-72
2022/09/30 08:43:35;;;;;;;11.97;11.10;;;;;;;10.74;86.68;100163.16;5068712;28;20213;-72
2022/09/30 08:46:11;;;;;;;10.70;9.93;;;;;;;10.82;85.96;100158.66;5069349;28;20243;-73
2022/09/30 08:48:54;;;;;;;10.47;9.77;;;;;;;10.88;86.94;100141.94;5069421;28;20217;-72
2022/09/30 08:51:30;;;;;;;10.80;10.00;;;;;;;10.91;85.79;100137.50;5068400;28;20916;-73
2022/09/30 08:54:01;;;;;;;10.80;10.10;;;;;;;10.93;85.41;100168.81;5069181;28;20203;-73
2022/09/30 08:56:30;;;;;;;11.17;10.30;;;;;;;10.99;85.34;100176.50;5065171;28;20228;-73
2022/09/30 08:59:01;;;;;;;9.80;9.10;;;;;;;11.04;83.94;100199.88;5069508;28;20244;-72
2022/09/30 09:01:32;;;;;;;8.73;8.07;;;;;;;11.12;80.99;100289.38;5069388;28;20237;-72
2022/09/30 09:04:00;;;;;;;9.43;8.73;;;;;;;11.21;80.43;100343.16;5069205;28;20235;-73
2022/09/30 09:06:33;;;;;;;8.90;8.20;;;;;;;11.29;83.08;100329.00;5068952;28;20845;-72
2022/09/30 09:09:16;;;;;;;8.60;7.90;;;;;;;11.40;79.45;100373.22;5069354;28;20214;-73
2022/09/30 09:11:59;;;;;;;8.70;7.87;;;;;;;11.47;77.44;100454.94;5068887;28;20301;-72
2022/09/30 09:14:39;;;;;;;9.13;8.27;;;;;;;11.45;75.78;100482.88;5069117;28;20610;-72
2022/09/30 09:17:20;;;;;;;9.47;8.60;;;;;;;11.56;77.27;100493.09;5069242;28;20243;-72
2022/09/30 09:19:57;;;;;;;9.37;8.67;;;;;;;11.57;76.59;100503.50;5069076;28;20686;-72
2022/09/30 09:22:25;;;;;;;8.73;7.93;;;;;;;11.59;76.79;100504.31;5069196;28;20794;-72
2022/09/30 09:24:54;;;;;;;9.00;8.40;;;;;;;11.71;77.45;100484.91;5068715;28;20571;-72
2022/09/30 09:27:26;;;;;;;9.33;8.60;;;;;;;11.78;77.61;100477.78;5064852;28;20203;-72
2022/09/30 09:30:05;;;;;;;8.73;8.03;;;;;;;11.84;74.77;100495.94;5049065;28;20225;-73
2022/09/30 09:32:33;;;;;;;8.13;7.47;;;;;;;11.95;74.45;100556.72;5049295;28;20211;-72
2022/09/30 09:35:04;;;;;;;9.83;9.03;;;;;;;11.97;73.82;100575.91;5048847;28;20229;-73
2022/09/30 09:40:33;;;;;;;9.23;8.67;;;;;;;12.07;74.49;100566.94;5068780;28;20209;-73
2022/09/30 09:43:08;;;;;;;10.50;9.70;;;;;;;12.08;75.87;100534.63;5068223;28;20598;-72
2022/09/30 09:45:42;;;;;;;9.60;8.87;;;;;;;12.12;74.91;100540.66;5068677;28;20239;-72
2022/09/30 09:48:11;;;;;;;10.50;9.70;;;;;;;12.19;76.05;100510.84;5069000;28;20218;-72
2022/09/30 09:50:46;;;;;;;9.40;8.63;;;;;;;12.27;75.30;100490.56;5068896;28;20214;-72
2022/09/30 09:53:24;;;;;;;9.53;8.83;;;;;;;12.37;74.48;100512.13;5069281;28;20215;-73
2022/09/30 09:55:56;;;;;;;10.10;9.40;;;;;;;12.43;74.13;100532.94;5064659;28;20778;-72
2022/09/30 09:58:22;;;;;;;8.97;8.27;;;;;;;12.49;72.94;100513.59;5069046;28;20209;-75
2022/09/30 10:01:22;;;;;;;9.50;8.90;;;;;;;12.50;70.87;100604.31;5068653;28;20793;-72
2022/09/30 10:04:08;;;;;;;9.20;8.50;;;;;;;12.56;70.54;100653.06;5068599;28;20206;-72
2022/09/30 10:06:44;;;;;;;8.30;7.70;;;;;;;12.60;70.85;100654.72;5068315;28;20763;-72
2022/09/30 10:09:23;;;;;;;6.70;6.13;;;;;;;12.65;70.05;100672.03;5068748;28;20344;-73
2022/09/30 10:11:49;;;;;;;7.93;7.30;;;;;;;12.71;68.95;100695.47;5068689;28;20224;-72
2022/09/30 10:14:20;;;;;;;7.70;7.10;;;;;;;12.77;68.33;100693.59;5068652;28;20202;-73
2022/09/30 10:16:48;;;;;;;7.47;6.80;;;;;;;12.82;66.76;100751.97;5068359;28;20631;-72
2022/09/30 10:19:21;;;;;;;7.87;7.27;;;;;;;12.87;67.14;100752.75;5068717;28;20225;-72
2022/09/30 10:21:47;;;;;;;6.50;6.10;;;;;;;12.87;67.64;100773.69;5068703;28;20698;-72
2022/09/30 10:24:27;;;;;;;6.43;5.97;;;;;;;12.97;68.64;100746.38;5069888;28;20651;-73
2022/09/30 10:26:54;;;;;;;7.30;6.80;;;;;;;12.99;67.93;100728.84;5067654;28;20269;-72
2022/09/30 10:29:27;;;;;;;7.67;7.17;;;;;;;12.99;68.07;100725.38;5072216;28;20207;-72
2022/09/30 10:31:56;;;;;;;7.07;6.43;;;;;;;12.98;66.57;100731.50;5072268;28;20241;-72
2022/09/30 10:34:26;;;;;;;8.37;7.37;;;;;;;13.06;67.49;100735.69;5072297;28;20298;-73
2022/09/30 10:36:54;;;;;;;7.93;7.30;;;;;;;13.12;67.36;100729.41;5072221;28;20216;-74
2022/09/30 10:39:25;;;;;;;8.40;7.77;;;;;;;13.10;65.71;100745.19;5055040;28;20211;-73
2022/09/30 10:42:00;;;;;;;8.53;7.77;;;;;;;13.14;66.34;100748.59;5051628;28;20212;-73
2022/09/30 10:44:28;;;;;;;8.37;7.67;;;;;;;13.18;65.75;100765.97;5051641;28;20238;-73
2022/09/30 10:47:02;;;;;;;8.27;7.60;;;;;;;13.21;64.86;100763.25;5051711;28;20752;-73
2022/09/30 10:49:33;;;;;;;8.40;7.80;;;;;;;13.32;64.90;100776.16;5051916;28;20321;-73
2022/09/30 10:52:01;;;;;;;8.23;7.60;;;;;;;13.40;66.08;100779.44;5054821;28;20248;-73
2022/09/30 10:54:36;;;;;;;8.60;7.80;;;;;;;13.48;66.24;100748.63;5051151;28;20634;-73
2022/09/30 10:57:03;;;;;;;8.90;8.20;;;;;;;13.47;66.55;100725.06;5061251;28;20203;-74
2022/09/30 10:59:34;;;;;;;9.20;8.37;;;;;;;13.59;67.82;100710.75;5062518;28;20236;-74
2022/09/30 11:02:17;;;;;;;8.50;7.83;;;;;;;13.57;64.94;100733.56;5062386;28;20656;-73
2022/09/30 11:04:49;;;;;;;8.10;7.43;;;;;;;13.64;64.16;100784.97;5062041;28;20230;-73
2022/09/30 11:07:24;;;;;;;8.03;7.47;;;;;;;13.70;63.98;100792.66;5061790;28;20206;-73
2022/09/30 11:09:56;;;;;;;8.00;7.37;;;;;;;13.84;64.43;100808.06;5060777;28;20207;-73
2022/09/30 11:12:28;;;;;;;7.93;7.43;;;;;;;13.97;65.17;100791.03;5059693;28;20200;-73
2022/09/30 11:15:04;;;;;;;7.47;6.90;;;;;;;14.03;64.93;100798.78;5060420;28;20218;-73
2022/09/30 11:17:39;;;;;;;9.37;8.57;;;;;;;13.95;61.50;100815.63;5061116;28;20200;-74
2022/09/30 11:20:15;;;;;;;9.33;8.73;;;;;;;13.98;62.31;100860.16;5060421;28;20220;-73
2022/09/30 11:22:49;;;;;;;9.60;8.97;;;;;;;14.16;62.06;100857.03;5059857;28;20207;-73
2022/09/30 11:25:19;;;;;;;9.60;9.00;;;;;;;14.36;61.76;100871.41;5055027;28;20236;-73
2022/09/30 11:28:11;;;;;;;9.77;9.17;;;;;;;14.53;59.28;100905.94;5070990;28;20219;-73
2022/09/30 11:30:48;;;;;;;9.20;8.50;;;;;;;15.03;59.49;100947.50;5063891;28;20230;-73
2022/09/30 11:33:33;;;;;;;11.07;9.17;;;;;;;15.88;58.93;100951.03;5059779;28;20201;-74
2022/09/30 11:36:07;;;;;;;9.17;8.40;;;;;;;16.26;55.19;101039.31;5059516;28;20220;-73
2022/09/30 11:38:50;;;;;;;7.60;7.00;;;;;;;17.84;52.91;101098.81;5059432;28;20552;-74
2022/09/30 11:41:24;;;;;;;7.50;6.93;;;;;;;18.21;51.94;101225.97;5060038;28;20198;-74
2022/09/30 11:44:00;;;;;;;7.57;6.97;;;;;;;19.42;48.72;101289.06;5059225;28;20217;-74
2022/09/30 11:46:55;;;;;;;7.60;7.10;;;;;;;20.49;45.82;101359.50;5059446;28;20314;-75
2022/09/30 11:49:56;;;;;;;7.47;6.90;;;;;;;20.33;43.46;101407.06;5060366;28;20212;-74
2022/09/30 11:52:31;;;;;;;6.80;6.30;;;;;;;20.94;42.87;101457.38;5059883;28;20218;-74
2022/09/30 11:55:08;;;;;;;6.57;6.10;;;;;;;21.04;43.34;101497.66;5060068;28;20215;-74
2022/09/30 11:57:39;;;;;;;7.87;7.23;;;;;;;19.83;43.58;101509.88;5058579;28;20202;-74
2022/09/30 12:00:13;;;;;;;7.40;6.90;;;;;;;20.00;44.21;101453.53;5059804;28;20207;-73